sensor_id;sensor_type;location;lat;lon;timestamp;pressure;altitude;pressure_sealevel;temperature;humidity
39487;BME280;25173;50.430;18.926;2023-01-26T00:00:18;98924.56;;;6.48;54.73
39487;BME280;25173;50.430;18.926;2023-01-26T00:03:19;98926.91;;;6.45;54.77
39487;BME280;25173;50.430;18.926;2023-01-26T00:06:20;98916.47;;;6.48;54.79
39487;BME280;25173;50.430;18.926;2023-01-26T00:09:21;98909.25;;;6.42;54.55
39487;BME280;25173;50.430;18.926;2023-01-26T00:12:22;98909.88;;;6.44;54.85
39487;BME280;25173;50.430;18.926;2023-01-26T00:15:22;98910.22;;;6.48;54.98
39487;BME280;25173;50.430;18.926;2023-01-26T00:18:23;98903.31;;;6.52;54.93
39487;BME280;25173;50.430;18.926;2023-01-26T00:21:24;98894.84;;;6.60;54.92
39487;BME280;25173;50.430;18.926;2023-01-26T00:24:24;98893.94;;;6.66;54.96
39487;BME280;25173;50.430;18.926;2023-01-26T00:27:25;98896.38;;;6.68;54.66
39487;BME280;25173;50.430;18.926;2023-01-26T00:30:25;98895.22;;;6.63;54.72
39487;BME280;25173;50.430;18.926;2023-01-26T00:33:27;98893.34;;;6.64;54.77
39487;BME280;25173;50.430;18.926;2023-01-26T00:36:28;98896.03;;;6.64;54.83
39487;BME280;25173;50.430;18.926;2023-01-26T00:39:28;98893.28;;;6.52;54.58
39487;BME280;25173;50.430;18.926;2023-01-26T00:42:29;98897.97;;;6.45;54.84
39487;BME280;25173;50.430;18.926;2023-01-26T00:45:30;98895.94;;;6.41;54.96
39487;BME280;25173;50.430;18.926;2023-01-26T00:48:31;98896.41;;;6.38;55.20
39487;BME280;25173;50.430;18.926;2023-01-26T00:51:32;98903.03;;;6.42;55.13
39487;BME280;25173;50.430;18.926;2023-01-26T00:54:32;98895.00;;;6.35;54.84
39487;BME280;25173;50.430;18.926;2023-01-26T00:57:33;98898.09;;;6.20;54.73
39487;BME280;25173;50.430;18.926;2023-01-26T01:00:37;98900.97;;;6.07;55.32
39487;BME280;25173;50.430;18.926;2023-01-26T01:03:38;98895.94;;;6.11;55.53
39487;BME280;25173;50.430;18.926;2023-01-26T01:06:39;98899.59;;;6.16;55.41
39487;BME280;25173;50.430;18.926;2023-01-26T01:09:40;98896.69;;;6.18;55.37
39487;BME280;25173;50.430;18.926;2023-01-26T01:12:40;98882.00;;;6.26;55.39
39487;BME280;25173;50.430;18.926;2023-01-26T01:15:41;98883.69;;;6.38;55.31
39487;BME280;25173;50.430;18.926;2023-01-26T01:18:42;98881.38;;;6.42;55.14
39487;BME280;25173;50.430;18.926;2023-01-26T01:21:44;98883.03;;;6.43;55.16
39487;BME280;25173;50.430;18.926;2023-01-26T01:24:44;98874.41;;;6.34;54.92
39487;BME280;25173;50.430;18.926;2023-01-26T01:27:45;98879.09;;;6.09;55.06
39487;BME280;25173;50.430;18.926;2023-01-26T01:30:46;98871.25;;;5.89;55.50
39487;BME280;25173;50.430;18.926;2023-01-26T01:33:46;98871.16;;;5.96;55.90
39487;BME280;25173;50.430;18.926;2023-01-26T01:36:47;98868.03;;;5.99;55.65
39487;BME280;25173;50.430;18.926;2023-01-26T01:39:48;98864.50;;;5.98;55.53
39487;BME280;25173;50.430;18.926;2023-01-26T01:42:49;98859.75;;;5.94;55.65
39487;BME280;25173;50.430;18.926;2023-01-26T01:45:51;98847.59;;;5.84;55.79
39487;BME280;25173;50.430;18.926;2023-01-26T01:48:56;98854.69;;;5.79;55.86
39487;BME280;25173;50.430;18.926;2023-01-26T01:55:09;98840.97;;;5.80;55.83
39487;BME280;25173;50.430;18.926;2023-01-26T01:58:11;98849.53;;;5.77;55.63
39487;BME280;25173;50.430;18.926;2023-01-26T02:01:12;98851.16;;;5.78;56.06
39487;BME280;25173;50.430;18.926;2023-01-26T02:04:13;98847.06;;;5.94;56.28
39487;BME280;25173;50.430;18.926;2023-01-26T02:07:14;98841.94;;;6.04;56.09
39487;BME280;25173;50.430;18.926;2023-01-26T02:10:17;98843.84;;;6.15;55.88
39487;BME280;25173;50.430;18.926;2023-01-26T02:13:19;98846.03;;;6.25;55.83
39487;BME280;25173;50.430;18.926;2023-01-26T02:16:21;98840.28;;;6.33;55.44
39487;BME280;25173;50.430;18.926;2023-01-26T02:19:35;98834.19;;;6.38;55.18
39487;BME280;25173;50.430;18.926;2023-01-26T02:28:49;98831.53;;;6.19;55.46
39487;BME280;25173;50.430;18.926;2023-01-26T02:31:50;98827.72;;;6.09;55.45
39487;BME280;25173;50.430;18.926;2023-01-26T02:34:56;98828.28;;;5.99;55.46
39487;BME280;25173;50.430;18.926;2023-01-26T02:37:57;98819.56;;;5.97;55.71
39487;BME280;25173;50.430;18.926;2023-01-26T02:41:05;98810.31;;;6.05;55.58
39487;BME280;25173;50.430;18.926;2023-01-26T02:44:08;98808.78;;;6.09;55.42
39487;BME280;25173;50.430;18.926;2023-01-26T02:47:15;98807.63;;;6.05;55.39
39487;BME280;25173;50.430;18.926;2023-01-26T02:50:16;98807.94;;;5.97;55.26
39487;BME280;25173;50.430;18.926;2023-01-26T02:53:18;98803.22;;;5.92;55.44
39487;BME280;25173;50.430;18.926;2023-01-26T02:56:19;98800.88;;;5.96;55.37
39487;BME280;25173;50.430;18.926;2023-01-26T02:59:19;98796.16;;;5.91;55.28
39487;BME280;25173;50.430;18.926;2023-01-26T03:02:20;98793.06;;;5.88;55.39
39487;BME280;25173;50.430;18.926;2023-01-26T03:05:21;98786.91;;;5.80;55.40
39487;BME280;25173;50.430;18.926;2023-01-26T03:08:22;98783.38;;;5.80;55.49
39487;BME280;25173;50.430;18.926;2023-01-26T03:11:22;98786.00;;;5.86;55.64
39487;BME280;25173;50.430;18.926;2023-01-26T03:14:23;98783.59;;;5.97;55.58
39487;BME280;25173;50.430;18.926;2023-01-26T03:17:23;98780.03;;;6.14;55.72
39487;BME280;25173;50.430;18.926;2023-01-26T03:20:24;98774.28;;;6.22;55.41
39487;BME280;25173;50.430;18.926;2023-01-26T03:23:43;98772.53;;;6.28;55.42
39487;BME280;25173;50.430;18.926;2023-01-26T03:27:03;98764.53;;;6.33;55.41
39487;BME280;25173;50.430;18.926;2023-01-26T03:30:24;98765.97;;;6.36;55.13
39487;BME280;25173;50.430;18.926;2023-01-26T03:33:24;98768.69;;;6.36;55.21
39487;BME280;25173;50.430;18.926;2023-01-26T03:36:28;98762.56;;;6.40;55.12
39487;BME280;25173;50.430;18.926;2023-01-26T03:39:30;98761.06;;;6.44;55.01
39487;BME280;25173;50.430;18.926;2023-01-26T03:42:51;98756.69;;;6.43;54.97
39487;BME280;25173;50.430;18.926;2023-01-26T03:46:10;98758.09;;;6.46;55.10
39487;BME280;25173;50.430;18.926;2023-01-26T03:49:29;98749.41;;;6.44;54.88
39487;BME280;25173;50.430;18.926;2023-01-26T03:52:48;98742.69;;;6.46;55.21
39487;BME280;25173;50.430;18.926;2023-01-26T03:56:09;98747.53;;;6.44;55.08
39487;BME280;25173;50.430;18.926;2023-01-26T03:59:18;98738.81;;;6.42;55.14
39487;BME280;25173;50.430;18.926;2023-01-26T04:02:37;98744.56;;;6.34;55.15
39487;BME280;25173;50.430;18.926;2023-01-26T04:05:57;98734.78;;;6.33;55.14
39487;BME280;25173;50.430;18.926;2023-01-26T04:09:18;98736.31;;;6.29;55.22
39487;BME280;25173;50.430;18.926;2023-01-26T04:12:19;98742.56;;;6.30;55.37
39487;BME280;25173;50.430;18.926;2023-01-26T04:15:32;98743.34;;;6.30;55.12
39487;BME280;25173;50.430;18.926;2023-01-26T04:18:52;98733.22;;;6.14;55.46
39487;BME280;25173;50.430;18.926;2023-01-26T04:22:12;98734.63;;;6.05;55.19
39487;BME280;25173;50.430;18.926;2023-01-26T04:25:18;98726.59;;;5.98;55.58
39487;BME280;25173;50.430;18.926;2023-01-26T04:28:19;98724.56;;;5.94;55.71
39487;BME280;25173;50.430;18.926;2023-01-26T04:31:21;98726.53;;;5.86;55.75
39487;BME280;25173;50.430;18.926;2023-01-26T04:34:24;98723.09;;;5.79;55.92
39487;BME280;25173;50.430;18.926;2023-01-26T04:37:24;98718.06;;;5.83;56.09
39487;BME280;25173;50.430;18.926;2023-01-26T04:40:25;98714.88;;;5.86;56.30
39487;BME280;25173;50.430;18.926;2023-01-26T04:43:27;98713.09;;;5.98;56.17
39487;BME280;25173;50.430;18.926;2023-01-26T04:46:28;98711.78;;;6.01;55.91
39487;BME280;25173;50.430;18.926;2023-01-26T04:49:28;98723.47;;;6.13;55.81
39487;BME280;25173;50.430;18.926;2023-01-26T04:52:29;98711.84;;;6.24;55.67
39487;BME280;25173;50.430;18.926;2023-01-26T04:55:30;98713.75;;;6.35;55.53
39487;BME280;25173;50.430;18.926;2023-01-26T04:58:32;98705.88;;;6.34;54.97
39487;BME280;25173;50.430;18.926;2023-01-26T05:01:33;98706.31;;;6.31;55.06
39487;BME280;25173;50.430;18.926;2023-01-26T05:04:33;98699.03;;;6.19;55.00
39487;BME280;25173;50.430;18.926;2023-01-26T05:07:35;98705.00;;;6.10;55.27
39487;BME280;25173;50.430;18.926;2023-01-26T05:10:36;98695.09;;;6.04;55.40
39487;BME280;25173;50.430;18.926;2023-01-26T05:13:52;98684.28;;;6.04;55.42
39487;BME280;25173;50.430;18.926;2023-01-26T05:17:31;98683.91;;;6.00;55.42
39487;BME280;25173;50.430;18.926;2023-01-26T05:20:52;98680.41;;;6.00;55.51
39487;BME280;25173;50.430;18.926;2023-01-26T05:23:59;98677.00;;;5.93;55.48
39487;BME280;25173;50.430;18.926;2023-01-26T05:27:18;98681.22;;;6.00;55.86
39487;BME280;25173;50.430;18.926;2023-01-26T05:30:25;98671.16;;;6.19;55.83
39487;BME280;25173;50.430;18.926;2023-01-26T05:33:27;98678.44;;;6.30;55.49
39487;BME280;25173;50.430;18.926;2023-01-26T05:36:28;98671.06;;;6.37;55.45
39487;BME280;25173;50.430;18.926;2023-01-26T05:39:30;98679.28;;;6.42;55.26
39487;BME280;25173;50.430;18.926;2023-01-26T05:42:32;98679.41;;;6.47;55.18
39487;BME280;25173;50.430;18.926;2023-01-26T05:45:43;98683.31;;;6.51;55.37
39487;BME280;25173;50.430;18.926;2023-01-26T05:48:45;98677.50;;;6.59;55.27
39487;BME280;25173;50.430;18.926;2023-01-26T05:51:46;98684.13;;;6.63;55.59
39487;BME280;25173;50.430;18.926;2023-01-26T05:54:48;98684.22;;;6.69;55.13
39487;BME280;25173;50.430;18.926;2023-01-26T05:57:49;98672.44;;;6.75;55.08
39487;BME280;25173;50.430;18.926;2023-01-26T06:00:50;98677.28;;;6.73;54.98
39487;BME280;25173;50.430;18.926;2023-01-26T06:03:57;98673.03;;;6.77;55.21
39487;BME280;25173;50.430;18.926;2023-01-26T06:07:01;98678.22;;;6.78;55.03
39487;BME280;25173;50.430;18.926;2023-01-26T06:10:07;98673.88;;;6.77;55.00
39487;BME280;25173;50.430;18.926;2023-01-26T06:13:20;98668.81;;;6.81;55.02
39487;BME280;25173;50.430;18.926;2023-01-26T06:16:26;98667.72;;;6.82;55.16
39487;BME280;25173;50.430;18.926;2023-01-26T06:19:27;98668.81;;;6.81;55.22
39487;BME280;25173;50.430;18.926;2023-01-26T06:22:31;98669.16;;;6.84;55.22
39487;BME280;25173;50.430;18.926;2023-01-26T06:25:33;98672.91;;;6.83;55.18
39487;BME280;25173;50.430;18.926;2023-01-26T06:28:33;98674.09;;;6.87;55.11
39487;BME280;25173;50.430;18.926;2023-01-26T06:31:36;98670.56;;;6.87;55.04
39487;BME280;25173;50.430;18.926;2023-01-26T06:34:38;98666.53;;;6.89;55.07
39487;BME280;25173;50.430;18.926;2023-01-26T06:37:40;98671.25;;;6.94;54.89
39487;BME280;25173;50.430;18.926;2023-01-26T06:40:41;98669.84;;;6.91;54.98
39487;BME280;25173;50.430;18.926;2023-01-26T06:43:46;98672.69;;;6.96;55.12
39487;BME280;25173;50.430;18.926;2023-01-26T06:46:47;98659.47;;;7.00;55.13
39487;BME280;25173;50.430;18.926;2023-01-26T06:49:48;98665.56;;;7.07;54.94
39487;BME280;25173;50.430;18.926;2023-01-26T06:52:51;98662.41;;;7.10;54.86
39487;BME280;25173;50.430;18.926;2023-01-26T06:56:16;98662.03;;;7.07;54.73
39487;BME280;25173;50.430;18.926;2023-01-26T06:59:32;98664.75;;;7.07;54.39
39487;BME280;25173;50.430;18.926;2023-01-26T07:02:42;98661.72;;;7.03;54.49
39487;BME280;25173;50.430;18.926;2023-01-26T07:05:42;98667.69;;;7.05;54.69
39487;BME280;25173;50.430;18.926;2023-01-26T07:08:43;98661.22;;;7.06;54.53
39487;BME280;25173;50.430;18.926;2023-01-26T07:11:44;98656.63;;;7.07;54.53
39487;BME280;25173;50.430;18.926;2023-01-26T07:14:45;98657.00;;;7.10;54.67
39487;BME280;25173;50.430;18.926;2023-01-26T07:17:46;98659.94;;;7.09;54.56
39487;BME280;25173;50.430;18.926;2023-01-26T07:20:46;98652.41;;;7.11;54.50
39487;BME280;25173;50.430;18.926;2023-01-26T07:23:47;98652.03;;;7.07;54.33
39487;BME280;25173;50.430;18.926;2023-01-26T07:26:49;98651.81;;;7.09;54.55
39487;BME280;25173;50.430;18.926;2023-01-26T07:29:50;98659.78;;;7.15;54.53
39487;BME280;25173;50.430;18.926;2023-01-26T07:32:50;98655.53;;;7.19;54.42
39487;BME280;25173;50.430;18.926;2023-01-26T07:35:52;98659.41;;;7.23;54.27
39487;BME280;25173;50.430;18.926;2023-01-26T07:38:53;98653.03;;;7.29;54.39
39487;BME280;25173;50.430;18.926;2023-01-26T07:41:54;98647.22;;;7.37;54.49
39487;BME280;25173;50.430;18.926;2023-01-26T07:45:19;98655.22;;;7.44;54.13
39487;BME280;25173;50.430;18.926;2023-01-26T07:48:22;98654.00;;;7.52;54.00
39487;BME280;25173;50.430;18.926;2023-01-26T07:51:23;98661.91;;;7.53;53.98
39487;BME280;25173;50.430;18.926;2023-01-26T07:54:24;98650.09;;;7.59;53.95
39487;BME280;25173;50.430;18.926;2023-01-26T07:57:24;98655.34;;;7.66;53.81
39487;BME280;25173;50.430;18.926;2023-01-26T08:00:25;98671.13;;;7.69;53.76
39487;BME280;25173;50.430;18.926;2023-01-26T08:03:26;98668.53;;;7.74;53.70
39487;BME280;25173;50.430;18.926;2023-01-26T08:06:27;98662.13;;;7.80;53.83
39487;BME280;25173;50.430;18.926;2023-01-26T08:09:27;98658.41;;;7.86;53.71
39487;BME280;25173;50.430;18.926;2023-01-26T08:12:29;98651.47;;;7.90;53.55
39487;BME280;25173;50.430;18.926;2023-01-26T08:15:30;98652.28;;;7.91;53.41
39487;BME280;25173;50.430;18.926;2023-01-26T08:18:31;98650.16;;;7.93;53.48
39487;BME280;25173;50.430;18.926;2023-01-26T08:21:31;98652.13;;;7.97;53.50
39487;BME280;25173;50.430;18.926;2023-01-26T08:24:32;98658.13;;;7.99;53.51
39487;BME280;25173;50.430;18.926;2023-01-26T08:27:33;98653.25;;;8.01;53.35
39487;BME280;25173;50.430;18.926;2023-01-26T08:30:34;98644.88;;;8.03;53.08
39487;BME280;25173;50.430;18.926;2023-01-26T08:33:36;98646.53;;;8.04;53.16
39487;BME280;25173;50.430;18.926;2023-01-26T08:36:38;98644.47;;;8.11;53.10
39487;BME280;25173;50.430;18.926;2023-01-26T08:39:39;98648.38;;;8.15;52.86
39487;BME280;25173;50.430;18.926;2023-01-26T08:42:39;98641.03;;;8.15;52.83
39487;BME280;25173;50.430;18.926;2023-01-26T08:45:40;98646.53;;;8.21;52.92
39487;BME280;25173;50.430;18.926;2023-01-26T08:48:41;98644.72;;;8.26;52.84
39487;BME280;25173;50.430;18.926;2023-01-26T08:51:41;98647.19;;;8.28;52.69
39487;BME280;25173;50.430;18.926;2023-01-26T08:54:42;98634.31;;;8.35;52.72
39487;BME280;25173;50.430;18.926;2023-01-26T08:57:43;98645.25;;;8.40;52.67
39487;BME280;25173;50.430;18.926;2023-01-26T09:00:44;98641.81;;;8.44;52.58
39487;BME280;25173;50.430;18.926;2023-01-26T09:03:45;98639.41;;;8.48;52.49
39487;BME280;25173;50.430;18.926;2023-01-26T09:06:45;98638.31;;;8.49;52.32
39487;BME280;25173;50.430;18.926;2023-01-26T09:09:46;98635.28;;;8.45;52.21
39487;BME280;25173;50.430;18.926;2023-01-26T09:12:47;98630.13;;;8.44;52.32
39487;BME280;25173;50.430;18.926;2023-01-26T09:15:48;98632.31;;;8.47;52.38
39487;BME280;25173;50.430;18.926;2023-01-26T09:18:50;98643.19;;;8.47;52.23
39487;BME280;25173;50.430;18.926;2023-01-26T09:21:54;98642.13;;;8.48;52.08
39487;BME280;25173;50.430;18.926;2023-01-26T09:24:55;98634.53;;;8.50;52.16
39487;BME280;25173;50.430;18.926;2023-01-26T09:27:56;98626.81;;;8.59;52.07
39487;BME280;25173;50.430;18.926;2023-01-26T09:31:04;98626.53;;;8.60;51.95
39487;BME280;25173;50.430;18.926;2023-01-26T09:34:05;98636.66;;;8.65;52.07
39487;BME280;25173;50.430;18.926;2023-01-26T09:37:07;98628.13;;;8.56;51.69
39487;BME280;25173;50.430;18.926;2023-01-26T09:40:15;98637.75;;;8.47;51.75
39487;BME280;25173;50.430;18.926;2023-01-26T09:43:27;98629.31;;;8.43;52.08
39487;BME280;25173;50.430;18.926;2023-01-26T09:50:03;98618.94;;;8.40;51.77
39487;BME280;25173;50.430;18.926;2023-01-26T09:53:25;98615.31;;;8.35;51.80
39487;BME280;25173;50.430;18.926;2023-01-26T09:56:29;98617.22;;;8.34;52.22
39487;BME280;25173;50.430;18.926;2023-01-26T09:59:42;98621.81;;;8.34;52.26
39487;BME280;25173;50.430;18.926;2023-01-26T10:03:04;98618.63;;;8.37;52.19
39487;BME280;25173;50.430;18.926;2023-01-26T10:06:19;98615.97;;;8.42;52.24
39487;BME280;25173;50.430;18.926;2023-01-26T10:09:43;98616.28;;;8.45;52.27
39487;BME280;25173;50.430;18.926;2023-01-26T10:12:48;98622.88;;;8.49;52.23
39487;BME280;25173;50.430;18.926;2023-01-26T10:15:55;98615.94;;;8.59;52.17
39487;BME280;25173;50.430;18.926;2023-01-26T10:19:02;98605.97;;;8.64;52.05
39487;BME280;25173;50.430;18.926;2023-01-26T10:22:10;98603.66;;;8.73;52.13
39487;BME280;25173;50.430;18.926;2023-01-26T10:25:18;98599.34;;;8.77;51.70
39487;BME280;25173;50.430;18.926;2023-01-26T10:31:31;98592.66;;;8.84;51.73
39487;BME280;25173;50.430;18.926;2023-01-26T10:34:32;98592.34;;;8.81;51.59
39487;BME280;25173;50.430;18.926;2023-01-26T10:37:33;98591.53;;;8.80;51.76
39487;BME280;25173;50.430;18.926;2023-01-26T10:40:42;98590.28;;;8.88;51.71
39487;BME280;25173;50.430;18.926;2023-01-26T10:47:16;98578.25;;;9.06;51.24
39487;BME280;25173;50.430;18.926;2023-01-26T10:50:21;98579.19;;;9.16;51.16
39487;BME280;25173;50.430;18.926;2023-01-26T10:53:26;98582.81;;;9.27;51.05
39487;BME280;25173;50.430;18.926;2023-01-26T10:56:30;98569.56;;;9.30;51.12
39487;BME280;25173;50.430;18.926;2023-01-26T11:02:34;98572.84;;;9.32;50.78
39487;BME280;25173;50.430;18.926;2023-01-26T11:05:35;98568.16;;;9.28;50.88
39487;BME280;25173;50.430;18.926;2023-01-26T11:08:37;98565.78;;;9.31;50.95
39487;BME280;25173;50.430;18.926;2023-01-26T11:11:39;98565.00;;;9.36;50.79
39487;BME280;25173;50.430;18.926;2023-01-26T11:14:40;98564.25;;;9.41;50.94
39487;BME280;25173;50.430;18.926;2023-01-26T11:17:46;98563.13;;;9.42;50.75
39487;BME280;25173;50.430;18.926;2023-01-26T11:21:19;98561.25;;;9.42;50.34
39487;BME280;25173;50.430;18.926;2023-01-26T11:24:27;98562.59;;;9.40;50.63
39487;BME280;25173;50.430;18.926;2023-01-26T11:31:03;98555.53;;;9.39;50.24
39487;BME280;25173;50.430;18.926;2023-01-26T11:37:46;98546.78;;;9.37;50.13
39487;BME280;25173;50.430;18.926;2023-01-26T11:58:06;98522.72;;;9.18;50.41
39487;BME280;25173;50.430;18.926;2023-01-26T12:01:21;98518.59;;;9.16;50.57
39487;BME280;25173;50.430;18.926;2023-01-26T12:04:30;98513.72;;;9.18;50.80
39487;BME280;25173;50.430;18.926;2023-01-26T12:07:47;98508.00;;;9.19;50.43
39487;BME280;25173;50.430;18.926;2023-01-26T12:14:30;98494.75;;;9.23;50.71
39487;BME280;25173;50.430;18.926;2023-01-26T12:21:04;98483.09;;;9.27;50.58
39487;BME280;25173;50.430;18.926;2023-01-26T12:24:13;98472.22;;;9.27;50.47
39487;BME280;25173;50.430;18.926;2023-01-26T12:27:27;98472.44;;;9.21;50.35
39487;BME280;25173;50.430;18.926;2023-01-26T12:30:57;98472.91;;;9.13;50.47
39487;BME280;25173;50.430;18.926;2023-01-26T12:34:01;98467.44;;;9.08;50.75
39487;BME280;25173;50.430;18.926;2023-01-26T12:37:30;98466.34;;;9.09;50.44
39487;BME280;25173;50.430;18.926;2023-01-26T12:50:45;98455.63;;;8.97;50.75
39487;BME280;25173;50.430;18.926;2023-01-26T12:53:57;98460.50;;;8.95;50.81
39487;BME280;25173;50.430;18.926;2023-01-26T12:57:01;98453.47;;;8.99;50.69
39487;BME280;25173;50.430;18.926;2023-01-26T13:00:17;98457.84;;;9.00;50.48
39487;BME280;25173;50.430;18.926;2023-01-26T13:03:25;98464.59;;;8.98;50.64
39487;BME280;25173;50.430;18.926;2023-01-26T13:06:28;98459.13;;;8.92;50.59
39487;BME280;25173;50.430;18.926;2023-01-26T13:09:29;98458.50;;;8.85;50.78
39487;BME280;25173;50.430;18.926;2023-01-26T13:22:41;98466.00;;;8.73;50.80
39487;BME280;25173;50.430;18.926;2023-01-26T13:25:48;98459.97;;;8.71;50.78
39487;BME280;25173;50.430;18.926;2023-01-26T13:29:28;98460.22;;;8.70;50.27
39487;BME280;25173;50.430;18.926;2023-01-26T13:35:36;98468.59;;;8.25;51.09
39487;BME280;25173;50.430;18.926;2023-01-26T13:38:41;98469.31;;;8.15;51.13
39487;BME280;25173;50.430;18.926;2023-01-26T13:41:44;98456.81;;;8.14;51.48
39487;BME280;25173;50.430;18.926;2023-01-26T13:44:51;98454.75;;;8.21;51.55
39487;BME280;25173;50.430;18.926;2023-01-26T13:47:56;98455.47;;;8.33;51.47
39487;BME280;25173;50.430;18.926;2023-01-26T13:51:01;98446.06;;;8.41;51.49
39487;BME280;25173;50.430;18.926;2023-01-26T13:54:10;98442.41;;;8.52;51.32
39487;BME280;25173;50.430;18.926;2023-01-26T13:57:23;98443.03;;;8.59;51.24
39487;BME280;25173;50.430;18.926;2023-01-26T14:00:24;98444.16;;;8.63;51.04
39487;BME280;25173;50.430;18.926;2023-01-26T14:03:24;98449.06;;;8.66;51.09
39487;BME280;25173;50.430;18.926;2023-01-26T14:06:25;98452.34;;;8.68;51.15
39487;BME280;25173;50.430;18.926;2023-01-26T14:09:27;98451.84;;;8.71;51.02
39487;BME280;25173;50.430;18.926;2023-01-26T14:12:34;98453.78;;;8.76;50.84
39487;BME280;25173;50.430;18.926;2023-01-26T14:15:35;98450.78;;;8.72;50.33
39487;BME280;25173;50.430;18.926;2023-01-26T14:18:36;98451.59;;;8.73;50.85
39487;BME280;25173;50.430;18.926;2023-01-26T14:21:56;98445.91;;;8.74;50.76
39487;BME280;25173;50.430;18.926;2023-01-26T14:24:57;98451.59;;;8.73;51.16
39487;BME280;25173;50.430;18.926;2023-01-26T14:27:57;98443.66;;;8.66;50.99
39487;BME280;25173;50.430;18.926;2023-01-26T14:31:05;98439.53;;;8.64;51.04
39487;BME280;25173;50.430;18.926;2023-01-26T14:34:09;98447.56;;;8.53;51.32
39487;BME280;25173;50.430;18.926;2023-01-26T14:37:15;98438.28;;;8.49;51.43
39487;BME280;25173;50.430;18.926;2023-01-26T14:40:23;98435.81;;;8.48;51.31
39487;BME280;25173;50.430;18.926;2023-01-26T14:43:25;98435.00;;;8.47;51.47
39487;BME280;25173;50.430;18.926;2023-01-26T14:50:06;98434.81;;;8.54;51.38
39487;BME280;25173;50.430;18.926;2023-01-26T14:53:20;98435.94;;;8.58;51.14
39487;BME280;25173;50.430;18.926;2023-01-26T14:56:30;98429.38;;;8.54;51.00
39487;BME280;25173;50.430;18.926;2023-01-26T14:59:36;98429.91;;;8.51;51.17
39487;BME280;25173;50.430;18.926;2023-01-26T15:02:43;98434.44;;;8.45;50.91
39487;BME280;25173;50.430;18.926;2023-01-26T15:05:46;98431.97;;;8.22;51.17
39487;BME280;25173;50.430;18.926;2023-01-26T15:08:58;98439.09;;;8.06;50.92
39487;BME280;25173;50.430;18.926;2023-01-26T15:11:59;98431.09;;;7.78;51.27
39487;BME280;25173;50.430;18.926;2023-01-26T15:15:26;98439.25;;;7.61;51.83
39487;BME280;25173;50.430;18.926;2023-01-26T15:18:31;98438.44;;;7.61;52.03
39487;BME280;25173;50.430;18.926;2023-01-26T15:24:33;98437.69;;;7.49;52.18
39487;BME280;25173;50.430;18.926;2023-01-26T15:27:35;98440.31;;;7.44;52.32
39487;BME280;25173;50.430;18.926;2023-01-26T15:30:36;98432.69;;;7.40;52.44
39487;BME280;25173;50.430;18.926;2023-01-26T15:33:42;98431.53;;;7.36;52.48
39487;BME280;25173;50.430;18.926;2023-01-26T15:36:50;98434.41;;;7.30;52.56
39487;BME280;25173;50.430;18.926;2023-01-26T15:39:51;98425.38;;;7.24;52.82
39487;BME280;25173;50.430;18.926;2023-01-26T15:43:13;98425.56;;;7.18;52.82
39487;BME280;25173;50.430;18.926;2023-01-26T15:46:14;98432.75;;;7.12;52.99
39487;BME280;25173;50.430;18.926;2023-01-26T15:49:15;98431.28;;;7.05;53.00
39487;BME280;25173;50.430;18.926;2023-01-26T15:52:24;98436.59;;;6.99;53.19
39487;BME280;25173;50.430;18.926;2023-01-26T15:55:30;98435.19;;;6.97;53.27
39487;BME280;25173;50.430;18.926;2023-01-26T15:58:32;98436.28;;;6.96;53.42
39487;BME280;25173;50.430;18.926;2023-01-26T16:01:35;98433.59;;;6.96;53.29
39487;BME280;25173;50.430;18.926;2023-01-26T16:04:35;98440.28;;;6.93;53.59
39487;BME280;25173;50.430;18.926;2023-01-26T16:07:36;98432.09;;;6.88;53.57
39487;BME280;25173;50.430;18.926;2023-01-26T16:10:37;98432.31;;;6.87;53.75
39487;BME280;25173;50.430;18.926;2023-01-26T16:13:37;98432.31;;;6.87;53.63
39487;BME280;25173;50.430;18.926;2023-01-26T16:16:39;98434.94;;;6.82;53.85
39487;BME280;25173;50.430;18.926;2023-01-26T16:19:41;98422.75;;;6.68;53.54
39487;BME280;25173;50.430;18.926;2023-01-26T16:22:41;98426.44;;;6.61;53.89
39487;BME280;25173;50.430;18.926;2023-01-26T16:25:42;98425.38;;;6.62;53.90
39487;BME280;25173;50.430;18.926;2023-01-26T16:28:43;98421.84;;;6.62;54.02
39487;BME280;25173;50.430;18.926;2023-01-26T16:31:45;98417.03;;;6.64;53.87
39487;BME280;25173;50.430;18.926;2023-01-26T16:34:46;98416.13;;;6.58;53.66
39487;BME280;25173;50.430;18.926;2023-01-26T16:37:47;98425.31;;;6.46;53.68
39487;BME280;25173;50.430;18.926;2023-01-26T16:40:48;98425.59;;;6.44;53.75
39487;BME280;25173;50.430;18.926;2023-01-26T16:43:49;98424.41;;;6.40;53.55
39487;BME280;25173;50.430;18.926;2023-01-26T16:46:49;98434.41;;;6.40;53.84
39487;BME280;25173;50.430;18.926;2023-01-26T16:49:50;98431.59;;;6.35;53.80
39487;BME280;25173;50.430;18.926;2023-01-26T16:52:51;98436.34;;;6.28;53.94
39487;BME280;25173;50.430;18.926;2023-01-26T16:55:52;98433.91;;;6.14;54.22
39487;BME280;25173;50.430;18.926;2023-01-26T16:58:53;98425.22;;;6.01;54.56
39487;BME280;25173;50.430;18.926;2023-01-26T17:01:54;98431.56;;;5.95;54.90
39487;BME280;25173;50.430;18.926;2023-01-26T17:04:54;98438.75;;;5.89;55.08
39487;BME280;25173;50.430;18.926;2023-01-26T17:07:55;98439.22;;;5.74;55.21
39487;BME280;25173;50.430;18.926;2023-01-26T17:10:56;98434.63;;;5.63;55.32
39487;BME280;25173;50.430;18.926;2023-01-26T17:13:57;98435.22;;;5.54;55.20
39487;BME280;25173;50.430;18.926;2023-01-26T17:16:58;98432.50;;;5.42;55.03
39487;BME280;25173;50.430;18.926;2023-01-26T17:19:59;98433.56;;;5.29;54.95
39487;BME280;25173;50.430;18.926;2023-01-26T17:23:00;98425.00;;;5.21;55.09
39487;BME280;25173;50.430;18.926;2023-01-26T17:26:01;98435.66;;;5.16;55.23
39487;BME280;25173;50.430;18.926;2023-01-26T17:29:03;98429.56;;;5.08;55.37
39487;BME280;25173;50.430;18.926;2023-01-26T17:32:03;98418.66;;;5.03;55.26
39487;BME280;25173;50.430;18.926;2023-01-26T17:35:04;98427.06;;;4.95;55.48
39487;BME280;25173;50.430;18.926;2023-01-26T17:38:05;98430.72;;;5.01;55.59
39487;BME280;25173;50.430;18.926;2023-01-26T17:41:06;98423.31;;;4.96;55.54